METAR
Output Produced by Metar
found at http://aviationweather.gov/adds/metars/
 

Data at: 0631 UTC 05 Apr 2020

METAR for:WIII (Jakarta Intl, JB, ID)
Text:WIII 050630Z 32009KT 9999 FEW018 32/24 Q1009
Temperature: 32.0°C ( 90°F)
Dewpoint: 24.0°C ( 75°F) [RH = 63%]
Pressure (altimeter):29.79 inches Hg (1009.0 mb)
Winds:from the NW (320 degrees) at 10 MPH (9 knots; 4.6 m/s)
Visibility:6 or more sm (10+ km)
Ceiling:at least 12,000 feet AGL
Clouds: few clouds at 1800 feet AGL